| time (UTC) | temp F | wind direction | speed MPH | gust MPH | rain 1hr in | rain 24hr in | rain mn in | humidity % | barometer mb |
| 20260507101620 | 54 | 5 | 1.0 | 4.0 | 0.01 | 2.19 | 0.28 | 96 | 1013.0 |
| 20260507101058 | 54 | 0 | 0.0 | 3.0 | 0.01 | 2.19 | 0.28 | 96 | 1013.0 |
| 20260507100556 | 54 | 325 | 0.0 | 3.0 | 0.01 | 2.19 | 0.28 | 96 | 1012.8 |
| 20260507100058 | 54 | 333 | 0.0 | 4.0 | 0.01 | 2.19 | 0.28 | 96 | 1012.6 |
| 20260507095557 | 54 | 326 | 0.0 | 4.0 | 0.01 | 2.19 | 0.28 | 96 | 1012.5 |
| 20260507095056 | 54 | 41 | 0.0 | 4.0 | 0.01 | 2.19 | 0.28 | 97 | 1012.7 |
| 20260507094557 | 54 | 0 | 0.0 | 4.0 | 0.01 | 2.19 | 0.28 | 97 | 1013.2 |
| 20260507094056 | 54 | 327 | 1.0 | 4.0 | 0.00 | 2.18 | 0.27 | 97 | 1012.9 |
| 20260507093556 | 54 | 0 | 1.0 | 4.0 | 0.01 | 2.18 | 0.27 | 97 | 1013.1 |
| 20260507093100 | 54 | 352 | 0.0 | 2.0 | 0.03 | 2.18 | 0.27 | 97 | 1013.1 |
| 20260507092557 | 54 | 0 | 0.0 | 2.0 | 0.06 | 2.18 | 0.27 | 97 | 1012.7 |
| 20260507092100 | 54 | 331 | 0.0 | 2.0 | 0.07 | 2.18 | 0.27 | 97 | 1012.5 |
| 20260507091557 | 54 | 0 | 0.0 | 3.0 | 0.09 | 2.18 | 0.27 | 97 | 1012.9 |
| 20260507091056 | 54 | 352 | 0.0 | 4.0 | 0.15 | 2.18 | 0.27 | 97 | 1012.9 |
| 20260507090556 | 54 | 313 | 1.0 | 4.0 | 0.21 | 2.18 | 0.27 | 96 | 1013.1 |
| 20260507090110 | 54 | 360 | 0.0 | 3.0 | 0.24 | 2.18 | 0.27 | 96 | 1013.3 |
| 20260507085557 | 54 | 0 | 1.0 | 6.0 | 0.24 | 2.18 | 0.27 | 96 | 1013.1 |
| 20260507085058 | 54 | 342 | 0.0 | 6.0 | 0.24 | 2.18 | 0.27 | 96 | 1013.2 |
| 20260507084555 | 54 | 321 | 1.0 | 4.0 | 0.25 | 2.18 | 0.27 | 97 | 1013.1 |
| 20260507084056 | 54 | 57 | 1.0 | 4.0 | 0.25 | 2.18 | 0.27 | 96 | 1012.4 |
| 20260507083557 | 54 | 42 | 0.0 | 5.0 | 0.24 | 2.17 | 0.26 | 96 | 1012.6 |
| 20260507083056 | 54 | 294 | 2.0 | 5.0 | 0.22 | 2.15 | 0.24 | 96 | 1012.4 |
| 20260507082600 | 55 | 0 | 0.0 | 4.0 | 0.20 | 2.11 | 0.21 | 96 | 1012.9 |
| 20260507082057 | 55 | 0 | 1.0 | 8.0 | 0.20 | 2.10 | 0.20 | 96 | 1013.8 |
| 20260507081556 | 55 | 246 | 3.0 | 8.0 | 0.18 | 2.08 | 0.18 | 96 | 1013.6 |
| 20260507081056 | 55 | 13 | 0.0 | 6.0 | 0.12 | 2.03 | 0.12 | 96 | 1012.9 |
| 20260507080557 | 55 | 310 | 1.0 | 6.0 | 0.06 | 1.97 | 0.06 | 96 | 1013.8 |
| 20260507080057 | 55 | 316 | 1.0 | 5.0 | 0.03 | 1.94 | 0.03 | 96 | 1013.3 |
| 20260507075559 | 55 | 54 | 1.0 | 4.0 | 0.03 | 1.94 | 0.03 | 96 | 1012.1 |
| 20260507075056 | 55 | 298 | 0.0 | 4.0 | 0.03 | 1.94 | 0.03 | 96 | 1012.2 |
| 20260507074558 | 55 | 52 | 1.0 | 8.0 | 0.02 | 1.93 | 0.02 | 96 | 1012.2 |
| 20260507074056 | 55 | 0 | 1.0 | 8.0 | 0.02 | 1.93 | 0.02 | 96 | 1012.5 |
| 20260507073556 | 55 | 352 | 1.0 | 8.0 | 0.02 | 1.93 | 0.02 | 96 | 1012.7 |
| 20260507073053 | 55 | 0 | 1.0 | 9.0 | 0.02 | 1.93 | 0.02 | 96 | 1012.7 |
| 20260507072556 | 55 | 304 | 1.0 | 9.0 | 0.01 | 1.92 | 0.01 | 96 | 1013.3 |
| 20260507072055 | 55 | 327 | 3.0 | 9.0 | 0.00 | 1.91 | 0.00 | 96 | 1014.5 |
| 20260507071557 | 55 | 0 | 0.0 | 3.0 | 0.00 | 1.91 | 0.00 | 96 | 1013.1 |
| 20260507071057 | 55 | 0 | 1.0 | 4.0 | 0.00 | 1.91 | 0.00 | 96 | 1012.7 |
| 20260507070557 | 55 | 0 | 1.0 | 4.0 | 0.00 | 1.91 | 0.00 | 96 | 1012.6 |
| 20260507070058 | 55 | 47 | 1.0 | 4.0 | 0.00 | 1.91 | 0.00 | 96 | 1012.7 |
| 20260507065556 | 55 | 286 | 1.0 | 4.0 | 0.00 | 1.91 | 0.00 | 95 | 1013.0 |
| 20260507065056 | 55 | 5 | 0.0 | 4.0 | 0.00 | 1.91 | 0.00 | 96 | 1013.2 |
| 20260507064608 | 55 | 34 | 0.0 | 4.0 | 0.00 | 1.91 | 0.00 | 96 | 1013.3 |
| 20260507064059 | 55 | 329 | 1.0 | 6.0 | 0.00 | 1.91 | 0.00 | 96 | 1013.3 |
| 20260507063557 | 55 | 0 | 0.0 | 6.0 | 0.00 | 1.91 | 0.00 | 96 | 1013.5 |
| 20260507063057 | 55 | 346 | 1.0 | 6.0 | 0.00 | 1.91 | 0.00 | 96 | 1013.3 |
| 20260507062556 | 55 | 0 | 1.0 | 6.0 | 0.00 | 1.91 | 0.00 | 96 | 1012.8 |
| 20260507062056 | 55 | 0 | 0.0 | 6.0 | 0.00 | 1.91 | 0.00 | 96 | 1012.8 |
| 20260507061556 | 55 | 336 | 1.0 | 6.0 | 0.00 | 1.91 | 0.00 | 96 | 1013.3 |
| 20260507061056 | 55 | 304 | 0.0 | 5.0 | 0.00 | 1.91 | 0.00 | 96 | 1013.5 |
| 20260507060556 | 55 | 0 | 1.0 | 6.0 | 0.00 | 1.91 | 0.00 | 96 | 1013.5 |
| 20260507060058 | 55 | 0 | 1.0 | 6.0 | 0.00 | 1.91 | 0.00 | 96 | 1013.6 |
| 20260507055556 | 55 | 0 | 0.0 | 3.0 | 0.00 | 1.91 | 0.00 | 96 | 1013.7 |
| 20260507055055 | 55 | 350 | 0.0 | 4.0 | 0.00 | 1.91 | 0.00 | 96 | 1013.7 |
| 20260507054606 | 55 | 311 | 1.0 | 4.0 | 0.00 | 1.91 | 0.00 | 96 | 1013.8 |
| 20260507054056 | 55 | 330 | 0.0 | 4.0 | 0.00 | 1.91 | 0.00 | 96 | 1013.9 |
| 20260507053556 | 56 | 294 | 1.0 | 8.0 | 0.00 | 1.91 | 0.00 | 96 | 1013.9 |
| 20260507053055 | 56 | 41 | 0.0 | 8.0 | 0.00 | 1.91 | 0.00 | 96 | 1013.4 |
| 20260507052555 | 56 | 344 | 0.0 | 4.0 | 0.00 | 1.91 | 0.00 | 96 | 1013.4 |
| 20260507052057 | 56 | 329 | 1.0 | 4.0 | 0.00 | 1.91 | 0.00 | 96 | 1013.3 |
| 20260507051556 | 56 | 0 | 0.0 | 4.0 | 0.00 | 1.91 | 0.00 | 97 | 1013.5 |
| 20260507051056 | 56 | 0 | 1.0 | 4.0 | 0.00 | 1.91 | 0.00 | 96 | 1013.7 |
| 20260507050556 | 56 | 0 | 1.0 | 3.0 | 0.00 | 1.91 | 0.00 | 96 | 1013.7 |
| 20260507050055 | 56 | 0 | 1.0 | 3.0 | 0.00 | 1.91 | 0.00 | 97 | 1013.8 |
| 20260507045559 | 56 | 53 | 1.0 | 3.0 | 0.00 | 1.91 | 1.91 | 96 | 1013.5 |
| 20260507045057 | 56 | 0 | 0.0 | 5.0 | 0.00 | 1.91 | 1.91 | 97 | 1013.7 |
| 20260507044556 | 56 | 321 | 1.0 | 5.0 | 0.00 | 1.91 | 1.91 | 97 | 1013.9 |
| 20260507044056 | 56 | 0 | 1.0 | 4.0 | 0.00 | 1.91 | 1.91 | 97 | 1013.7 |
| 20260507043556 | 56 | 317 | 1.0 | 3.0 | 0.00 | 1.91 | 1.91 | 97 | 1013.6 |
| 20260507043102 | 56 | 352 | 1.0 | 3.0 | 0.00 | 1.91 | 1.91 | 97 | 1013.7 |
| 20260507042557 | 56 | 0 | 0.0 | 3.0 | 0.00 | 1.91 | 1.91 | 97 | 1013.6 |
| 20260507042056 | 56 | 287 | 0.0 | 3.0 | 0.00 | 1.91 | 1.91 | 97 | 1013.6 |
| 20260507041608 | 56 | 336 | 0.0 | 2.0 | 0.00 | 1.91 | 1.91 | 97 | 1013.3 |
| 20260507041057 | 56 | 18 | 0.0 | 4.0 | 0.01 | 1.91 | 1.91 | 97 | 1013.3 |
| 20260507040557 | 56 | 0 | 0.0 | 4.0 | 0.01 | 1.91 | 1.91 | 97 | 1013.9 |
| 20260507040059 | 56 | 316 | 1.0 | 5.0 | 0.01 | 1.91 | 1.91 | 97 | 1013.8 |
| 20260507035556 | 56 | 0 | 0.0 | 5.0 | 0.01 | 1.91 | 1.91 | 97 | 1013.6 |
| 20260507035056 | 56 | 0 | 1.0 | 5.0 | 0.01 | 1.91 | 1.91 | 96 | 1013.5 |
| 20260507034557 | 56 | 0 | 0.0 | 4.0 | 0.01 | 1.91 | 1.91 | 97 | 1013.4 |
| 20260507034056 | 56 | 0 | 1.0 | 4.0 | 0.02 | 1.91 | 1.91 | 96 | 1013.5 |
| 20260507033559 | 56 | 328 | 0.0 | 4.0 | 0.03 | 1.91 | 1.91 | 97 | 1013.6 |
| 20260507033055 | 56 | 0 | 0.0 | 4.0 | 0.04 | 1.91 | 1.91 | 96 | 1013.9 |
| 20260507032556 | 56 | 304 | 0.0 | 4.0 | 0.08 | 1.91 | 1.91 | 97 | 1014.1 |
| 20260507032056 | 57 | 0 | 1.0 | 4.0 | 0.08 | 1.91 | 1.91 | 97 | 1013.8 |
| 20260507031600 | 57 | 38 | 0.0 | 4.0 | 0.08 | 1.91 | 1.91 | 97 | 1013.5 |
| 20260507031059 | 57 | 28 | 1.0 | 4.0 | 0.07 | 1.90 | 1.90 | 97 | 1013.3 |
| 20260507030556 | 57 | 333 | 0.0 | 3.0 | 0.07 | 1.90 | 1.90 | 97 | 1013.6 |
| 20260507025556 | 57 | 0 | 0.0 | 3.0 | 0.07 | 1.90 | 1.90 | 97 | 1013.5 |
| 20260507025057 | 57 | 352 | 1.0 | 3.0 | 0.07 | 1.90 | 1.90 | 97 | 1013.7 |
| 20260507024557 | 57 | 0 | 0.0 | 3.0 | 0.07 | 1.90 | 1.90 | 96 | 1013.6 |
| 20260507024057 | 57 | 311 | 0.0 | 2.0 | 0.06 | 1.89 | 1.89 | 97 | 1013.6 |
| 20260507023558 | 57 | 302 | 0.0 | 5.0 | 0.05 | 1.88 | 1.88 | 97 | 1013.9 |
| 20260507023111 | 57 | 325 | 0.0 | 5.0 | 0.04 | 1.87 | 1.87 | 97 | 1013.5 |
| 20260507022600 | 58 | 323 | 2.0 | 5.0 | 0.00 | 1.83 | 1.83 | 97 | 1013.5 |
| 20260507022057 | 58 | 317 | 1.0 | 3.0 | 0.00 | 1.83 | 1.83 | 97 | 1013.2 |
| 20260507021556 | 58 | 0 | 0.0 | 4.0 | 0.00 | 1.83 | 1.83 | 97 | 1013.3 |
| 20260507021056 | 58 | 0 | 0.0 | 4.0 | 0.00 | 1.83 | 1.83 | 97 | 1013.3 |
| 20260507020556 | 58 | 82 | 0.0 | 4.0 | 0.00 | 1.83 | 1.83 | 97 | 1013.2 |
| 20260507020056 | 58 | 0 | 0.0 | 4.0 | 0.00 | 1.83 | 1.83 | 97 | 1013.5 |
| 20260507015555 | 58 | 0 | 0.0 | 4.0 | 0.00 | 1.83 | 1.83 | 97 | 1013.5 |
| 20260507015057 | 58 | 0 | 0.0 | 4.0 | 0.00 | 1.83 | 1.83 | 97 | 1013.2 |
| 20260507014607 | 58 | 0 | 0.0 | 3.0 | 0.00 | 1.83 | 1.83 | 97 | 1013.1 |
| 20260507014056 | 58 | 0 | 0.0 | 3.0 | 0.00 | 1.83 | 1.83 | 97 | 1013.0 |
| 20260507013557 | 58 | 0 | 0.0 | 2.0 | 0.00 | 1.83 | 1.83 | 97 | 1013.1 |
| 20260507013115 | 58 | 0 | 0.0 | 4.0 | 0.00 | 1.83 | 1.83 | 97 | 1012.9 |
| 20260507012556 | 58 | 352 | 0.0 | 4.0 | 0.00 | 1.83 | 1.83 | 97 | 1012.9 |
| 20260507012057 | 58 | 0 | 0.0 | 4.0 | 0.00 | 1.83 | 1.83 | 97 | 1012.9 |
| 20260507011600 | 58 | 0 | 0.0 | 3.0 | 0.00 | 1.83 | 1.83 | 97 | 1013.2 |
| 20260507011056 | 58 | 0 | 0.0 | 2.0 | 0.00 | 1.83 | 1.83 | 97 | 1013.0 |
| 20260507010555 | 58 | 0 | 0.0 | 2.0 | 0.00 | 1.83 | 1.83 | 97 | 1013.0 |
| 20260507010059 | 58 | 0 | 0.0 | 2.0 | 0.00 | 1.83 | 1.83 | 97 | 1013.0 |
| 20260507005556 | 59 | 0 | 0.0 | 2.0 | 0.00 | 1.83 | 1.83 | 97 | 1013.1 |
| 20260507005056 | 58 | 32 | 0.0 | 2.0 | 0.00 | 1.83 | 1.83 | 97 | 1013.6 |
| 20260507004605 | 59 | 0 | 0.0 | 3.0 | 0.00 | 1.83 | 1.83 | 97 | 1013.6 |
| 20260507004056 | 59 | 0 | 0.0 | 4.0 | 0.00 | 1.83 | 1.83 | 97 | 1013.6 |
| 20260507003555 | 59 | 0 | 1.0 | 4.0 | 0.00 | 1.83 | 1.83 | 97 | 1013.7 |
| 20260507003058 | 59 | 26 | 0.0 | 5.0 | 0.00 | 1.83 | 1.83 | 97 | 1013.7 |
| 20260507002559 | 59 | 0 | 0.0 | 5.0 | 0.01 | 1.83 | 1.83 | 97 | 1013.5 |
| 20260507002055 | 59 | 44 | 1.0 | 5.0 | 0.01 | 1.83 | 1.83 | 97 | 1013.5 |
| 20260507001620 | 59 | 0 | 0.0 | 3.0 | 0.01 | 1.83 | 1.83 | 97 | 1013.3 |
| 20260507001056 | 59 | 0 | 0.0 | 4.0 | 0.01 | 1.83 | 1.83 | 97 | 1013.5 |
| 20260507000556 | 60 | 0 | 1.0 | 4.0 | 0.01 | 1.83 | 1.83 | 97 | 1013.3 |
| 20260507000101 | 60 | 31 | 1.0 | 4.0 | 0.01 | 1.83 | 1.83 | 97 | 1013.3 |
| 20260506235557 | 60 | 337 | 1.0 | 8.0 | 0.01 | 1.83 | 1.83 | 97 | 1013.4 |
| 20260506235056 | 61 | 336 | 1.0 | 8.0 | 0.02 | 1.83 | 1.83 | 97 | 1013.3 |
| 20260506234558 | 61 | 293 | 2.0 | 8.0 | 0.03 | 1.83 | 1.83 | 97 | 1013.3 |
| 20260506234057 | 62 | 319 | 1.0 | 3.0 | 0.04 | 1.83 | 1.83 | 97 | 1013.5 |
| 20260506233559 | 62 | 352 | 0.0 | 3.0 | 0.04 | 1.83 | 1.83 | 97 | 1013.3 |
| 20260506233102 | 62 | 0 | 0.0 | 3.0 | 0.04 | 1.83 | 1.83 | 97 | 1013.6 |
| 20260506232556 | 62 | 303 | 0.0 | 5.0 | 0.04 | 1.82 | 1.82 | 97 | 1013.4 |
| 20260506232056 | 62 | 283 | 1.0 | 5.0 | 0.05 | 1.82 | 1.82 | 97 | 1012.9 |
| 20260506231557 | 62 | 24 | 2.0 | 6.0 | 0.06 | 1.82 | 1.82 | 97 | 1012.8 |
| 20260506231056 | 63 | 331 | 1.0 | 6.0 | 0.06 | 1.82 | 1.82 | 97 | 1013.0 |
| 20260506230555 | 63 | 13 | 2.0 | 6.0 | 0.06 | 1.82 | 1.82 | 97 | 1013.2 |
| 20260506225559 | 64 | 326 | 1.0 | 6.0 | 0.06 | 1.82 | 1.82 | 97 | 1013.1 |
| 20260506225056 | 64 | 333 | 2.0 | 7.0 | 0.05 | 1.81 | 1.81 | 97 | 1013.0 |
| 20260506224556 | 65 | 290 | 2.0 | 9.0 | 0.04 | 1.80 | 1.80 | 97 | 1012.8 |
| 20260506224057 | 65 | 341 | 3.0 | 9.0 | 0.04 | 1.79 | 1.79 | 97 | 1012.8 |
| 20260506223556 | 65 | 352 | 1.0 | 7.0 | 0.08 | 1.79 | 1.79 | 98 | 1012.7 |
| 20260506223127 | 65 | 335 | 1.0 | 7.0 | 0.09 | 1.79 | 1.79 | 98 | 1012.9 |
| 20260506222556 | 65 | 297 | 1.0 | 4.0 | 0.08 | 1.78 | 1.78 | 98 | 1013.0 |
| 20260506222101 | 65 | 307 | 0.0 | 3.0 | 0.07 | 1.77 | 1.77 | 98 | 1012.7 |
| 20260506221603 | 65 | 0 | 1.0 | 3.0 | 0.06 | 1.76 | 1.76 | 98 | 1012.7 |
| 20260506221056 | 65 | 0 | 0.0 | 2.0 | 0.06 | 1.76 | 1.76 | 98 | 1012.7 |
| 20260506220556 | 65 | 0 | 0.0 | 2.0 | 0.06 | 1.76 | 1.76 | 98 | 1012.6 |
| 20260506220057 | 65 | 0 | 0.0 | 0.0 | 0.08 | 1.76 | 1.76 | 98 | 1012.6 |
| 20260506215556 | 65 | 0 | 0.0 | 1.0 | 0.15 | 1.76 | 1.76 | 98 | 1012.6 |
| 20260506215056 | 65 | 0 | 0.0 | 1.0 | 0.22 | 1.76 | 1.76 | 98 | 1012.3 |
| 20260506214609 | 65 | 0 | 0.0 | 1.0 | 0.24 | 1.76 | 1.76 | 98 | 1012.0 |
| 20260506214058 | 65 | 0 | 0.0 | 1.0 | 0.25 | 1.75 | 1.75 | 98 | 1011.9 |
| 20260506213558 | 65 | 0 | 0.0 | 0.0 | 0.23 | 1.71 | 1.71 | 98 | 1012.0 |
| 20260506213054 | 65 | 0 | 0.0 | 0.0 | 0.25 | 1.70 | 1.70 | 98 | 1012.2 |
| 20260506212556 | 65 | 0 | 0.0 | 1.0 | 0.30 | 1.70 | 1.70 | 98 | 1012.2 |
| 20260506212058 | 65 | 0 | 0.0 | 1.0 | 0.33 | 1.70 | 1.70 | 98 | 1011.9 |
| 20260506211557 | 65 | 0 | 0.0 | 1.0 | 0.40 | 1.70 | 1.70 | 98 | 1011.7 |
| 20260506211057 | 65 | 0 | 0.0 | 2.0 | 0.51 | 1.70 | 1.70 | 97 | 1011.8 |
| 20260506210557 | 65 | 0 | 0.0 | 2.0 | 0.57 | 1.70 | 1.70 | 97 | 1011.8 |
| 20260506210109 | 65 | 52 | 0.0 | 2.0 | 0.56 | 1.68 | 1.68 | 97 | 1011.9 |
| 20260506205556 | 65 | 0 | 0.0 | 1.0 | 0.50 | 1.61 | 1.61 | 97 | 1012.3 |
| 20260506205056 | 65 | 0 | 0.0 | 1.0 | 0.44 | 1.54 | 1.54 | 97 | 1011.8 |
| 20260506204557 | 64 | 0 | 0.0 | 1.0 | 0.42 | 1.52 | 1.52 | 97 | 1011.5 |
| 20260506204056 | 65 | 0 | 0.0 | 1.0 | 0.40 | 1.50 | 1.50 | 97 | 1011.5 |
| 20260506203556 | 65 | 0 | 0.0 | 2.0 | 0.38 | 1.48 | 1.48 | 97 | 1011.6 |
| 20260506203103 | 65 | 0 | 0.0 | 2.0 | 0.35 | 1.45 | 1.45 | 97 | 1011.8 |
| 20260506202557 | 65 | 0 | 0.0 | 2.0 | 0.30 | 1.40 | 1.40 | 97 | 1011.9 |
| 20260506202056 | 65 | 0 | 0.0 | 2.0 | 0.27 | 1.37 | 1.37 | 97 | 1012.2 |
| 20260506201558 | 65 | 352 | 0.0 | 1.0 | 0.21 | 1.30 | 1.30 | 97 | 1012.8 |
| 20260506201057 | 65 | 0 | 0.0 | 1.0 | 0.12 | 1.17 | 1.17 | 97 | 1012.6 |
| 20260506200556 | 65 | 0 | 0.0 | 1.0 | 0.08 | 1.13 | 1.13 | 97 | 1011.9 |
| 20260506200137 | 65 | 0 | 0.0 | 0.0 | 0.08 | 1.12 | 1.12 | 97 | 1012.4 |
| 20260506195557 | 64 | 0 | 0.0 | 1.0 | 0.08 | 1.11 | 1.11 | 97 | 1012.6 |
| 20260506195057 | 64 | 0 | 0.0 | 1.0 | 0.07 | 1.10 | 1.10 | 97 | 1012.7 |
| 20260506194604 | 64 | 0 | 0.0 | 1.0 | 0.07 | 1.10 | 1.10 | 97 | 1012.8 |
| 20260506194057 | 64 | 0 | 0.0 | 1.0 | 0.07 | 1.10 | 1.10 | 97 | 1012.8 |
| 20260506193555 | 64 | 0 | 0.0 | 1.0 | 0.07 | 1.10 | 1.10 | 97 | 1012.8 |
| 20260506193058 | 64 | 0 | 0.0 | 0.0 | 0.08 | 1.10 | 1.10 | 97 | 1012.9 |
| 20260506192556 | 64 | 0 | 0.0 | 1.0 | 0.08 | 1.10 | 1.10 | 97 | 1013.0 |
| 20260506192056 | 64 | 0 | 0.0 | 1.0 | 0.08 | 1.10 | 1.10 | 96 | 1013.0 |
| 20260506191603 | 64 | 0 | 0.0 | 1.0 | 0.06 | 1.08 | 1.08 | 96 | 1013.3 |
| 20260506191054 | 64 | 0 | 0.0 | 2.0 | 0.05 | 1.05 | 1.05 | 96 | 1013.3 |
| 20260506190557 | 64 | 0 | 0.0 | 2.0 | 0.09 | 1.04 | 1.04 | 96 | 1013.5 |
| 20260506190056 | 64 | 0 | 0.0 | 2.0 | 0.15 | 1.04 | 1.04 | 96 | 1013.5 |
| 20260506185556 | 64 | 0 | 0.0 | 2.0 | 0.16 | 1.04 | 1.03 | 96 | 1013.6 |
| 20260506185058 | 64 | 0 | 0.0 | 2.0 | 0.21 | 1.04 | 1.03 | 96 | 1013.6 |
| 20260506184556 | 64 | 0 | 0.0 | 0.0 | 0.21 | 1.04 | 1.03 | 96 | 1013.5 |
| 20260506184054 | 64 | 0 | 0.0 | 1.0 | 0.22 | 1.04 | 1.03 | 96 | 1013.6 |
| 20260506183556 | 64 | 0 | 0.0 | 1.0 | 0.23 | 1.04 | 1.03 | 96 | 1013.3 |
| 20260506183055 | 64 | 0 | 0.0 | 0.0 | 0.25 | 1.03 | 1.02 | 96 | 1013.4 |
| 20260506182555 | 64 | 0 | 0.0 | 2.0 | 0.26 | 1.03 | 1.02 | 96 | 1013.6 |
| 20260506182058 | 64 | 0 | 0.0 | 7.0 | 0.34 | 1.03 | 1.02 | 96 | 1013.8 |
| 20260506181559 | 63 | 0 | 2.0 | 7.0 | 0.47 | 1.03 | 1.02 | 96 | 1013.8 |
| 20260506181057 | 63 | 326 | 1.0 | 5.0 | 0.46 | 1.02 | 1.01 | 96 | 1014.1 |
| 20260506180559 | 63 | 0 | 1.0 | 5.0 | 0.41 | 0.96 | 0.95 | 95 | 1014.3 |
| 20260506180106 | 63 | 288 | 0.0 | 3.0 | 0.36 | 0.90 | 0.89 | 96 | 1014.7 |
| 20260506175553 | 63 | 0 | 1.0 | 3.0 | 0.35 | 0.88 | 0.87 | 95 | 1014.2 |
| 20260506175100 | 63 | 212 | 1.0 | 3.0 | 0.30 | 0.83 | 0.82 | 95 | 1014.0 |
| 20260506174604 | 63 | 208 | 0.0 | 3.0 | 0.30 | 0.83 | 0.82 | 95 | 1013.6 |
| 20260506174056 | 63 | 208 | 1.0 | 2.0 | 0.29 | 0.82 | 0.81 | 94 | 1013.7 |
| 20260506173556 | 64 | 163 | 0.0 | 3.0 | 0.27 | 0.80 | 0.79 | 94 | 1013.9 |
| 20260506173123 | 65 | 0 | 1.0 | 4.0 | 0.25 | 0.78 | 0.77 | 93 | 1014.4 |
| 20260506172558 | 66 | 341 | 1.0 | 12.0 | 0.24 | 0.77 | 0.76 | 93 | 1014.4 |
| 20260506172053 | 67 | 57 | 1.0 | 12.0 | 0.16 | 0.69 | 0.68 | 94 | 1014.5 |
| 20260506171607 | 68 | 300 | 1.0 | 4.0 | 0.03 | 0.56 | 0.55 | 95 | 1014.6 |
| 20260506171056 | 68 | 0 | 0.0 | 2.0 | 0.03 | 0.56 | 0.55 | 94 | 1013.9 |
| 20260506170555 | 68 | 211 | 0.0 | 2.0 | 0.02 | 0.55 | 0.54 | 94 | 1013.6 |
| 20260506170101 | 68 | 209 | 0.0 | 3.0 | 0.01 | 0.54 | 0.52 | 94 | 1013.7 |
| 20260506165556 | 69 | 200 | 0.0 | 3.0 | 0.00 | 0.52 | 0.52 | 93 | 1013.6 |
| 20260506165056 | 69 | 212 | 1.0 | 3.0 | 0.00 | 0.52 | 0.52 | 93 | 1013.6 |
| 20260506164611 | 69 | 183 | 1.0 | 4.0 | 0.00 | 0.52 | 0.52 | 93 | 1013.7 |
| 20260506164057 | 69 | 196 | 2.0 | 4.0 | 0.00 | 0.52 | 0.52 | 93 | 1013.3 |
| 20260506163556 | 69 | 189 | 2.0 | 4.0 | 0.00 | 0.52 | 0.52 | 93 | 1013.4 |
| 20260506163109 | 69 | 202 | 1.0 | 5.0 | 0.00 | 0.52 | 0.52 | 93 | 1013.4 |
| 20260506162558 | 69 | 214 | 1.0 | 5.0 | 0.00 | 0.52 | 0.52 | 93 | 1013.2 |
| 20260506162056 | 69 | 210 | 1.0 | 5.0 | 0.00 | 0.52 | 0.52 | 93 | 1013.1 |
| 20260506161611 | 69 | 197 | 2.0 | 5.0 | 0.00 | 0.52 | 0.52 | 93 | 1013.1 |
| 20260506161056 | 69 | 192 | 2.0 | 5.0 | 0.00 | 0.52 | 0.52 | 93 | 1013.0 |
| 20260506160556 | 69 | 163 | 1.0 | 4.0 | 0.00 | 0.52 | 0.52 | 94 | 1013.1 |
| 20260506160107 | 69 | 191 | 2.0 | 4.0 | 0.00 | 0.52 | 0.52 | 94 | 1013.0 |
| 20260506155558 | 68 | 192 | 3.0 | 5.0 | 0.00 | 0.52 | 0.52 | 95 | 1013.0 |
| 20260506155056 | 68 | 189 | 2.0 | 5.0 | 0.00 | 0.52 | 0.52 | 95 | 1013.0 |
| 20260506154558 | 68 | 205 | 1.0 | 4.0 | 0.00 | 0.52 | 0.52 | 95 | 1013.0 |
| 20260506154057 | 68 | 209 | 2.0 | 8.0 | 0.00 | 0.52 | 0.52 | 95 | 1013.1 |
| 20260506153555 | 68 | 186 | 2.0 | 8.0 | 0.00 | 0.52 | 0.52 | 95 | 1013.0 |
| 20260506153053 | 68 | 195 | 3.0 | 6.0 | 0.00 | 0.52 | 0.52 | 95 | 1013.1 |
| 20260506152556 | 68 | 187 | 3.0 | 6.0 | 0.00 | 0.52 | 0.52 | 96 | 1013.1 |
| 20260506152057 | 68 | 195 | 2.0 | 4.0 | 0.00 | 0.52 | 0.52 | 96 | 1013.1 |
| 20260506151555 | 68 | 207 | 2.0 | 5.0 | 0.00 | 0.52 | 0.52 | 96 | 1013.0 |
| 20260506151056 | 67 | 193 | 2.0 | 5.0 | 0.00 | 0.52 | 0.52 | 97 | 1012.8 |
| 20260506150555 | 67 | 205 | 3.0 | 5.0 | 0.00 | 0.52 | 0.52 | 96 | 1012.7 |
| 20260506150056 | 67 | 192 | 1.0 | 4.0 | 0.00 | 0.52 | 0.52 | 97 | 1012.8 |
| 20260506145600 | 66 | 182 | 2.0 | 4.0 | 0.00 | 0.52 | 0.52 | 97 | 1012.9 |
| 20260506145056 | 66 | 192 | 1.0 | 3.0 | 0.00 | 0.52 | 0.52 | 97 | 1013.0 |
| 20260506144556 | 66 | 224 | 1.0 | 3.0 | 0.00 | 0.52 | 0.52 | 96 | 1012.7 |
| 20260506144056 | 66 | 184 | 1.0 | 4.0 | 0.00 | 0.52 | 0.52 | 96 | 1012.9 |
| 20260506143556 | 66 | 175 | 1.0 | 4.0 | 0.01 | 0.52 | 0.52 | 97 | 1013.1 |
| 20260506143056 | 66 | 202 | 1.0 | 5.0 | 0.04 | 0.52 | 0.52 | 96 | 1013.1 |
| 20260506142556 | 65 | 0 | 1.0 | 6.0 | 0.11 | 0.52 | 0.52 | 97 | 1013.1 |
| 20260506142056 | 65 | 178 | 1.0 | 6.0 | 0.25 | 0.52 | 0.52 | 96 | 1013.2 |
| 20260506141555 | 65 | 188 | 1.0 | 2.0 | 0.37 | 0.52 | 0.52 | 96 | 1013.6 |
| 20260506141056 | 65 | 201 | 1.0 | 3.0 | 0.44 | 0.52 | 0.52 | 96 | 1013.4 |
| 20260506140559 | 64 | 175 | 1.0 | 4.0 | 0.47 | 0.52 | 0.52 | 95 | 1013.1 |
| 20260506140056 | 64 | 178 | 1.0 | 4.0 | 0.49 | 0.52 | 0.52 | 95 | 1013.3 |
| 20260506135556 | 65 | 204 | 1.0 | 3.0 | 0.50 | 0.52 | 0.52 | 95 | 1013.3 |
| 20260506135056 | 65 | 195 | 0.0 | 3.0 | 0.51 | 0.52 | 0.52 | 95 | 1013.2 |
| 20260506134618 | 65 | 0 | 0.0 | 3.0 | 0.52 | 0.52 | 0.52 | 95 | 1012.7 |
| 20260506134100 | 65 | 0 | 2.0 | 3.0 | 0.52 | 0.52 | 0.52 | 95 | 1013.3 |
| 20260506133557 | 65 | 208 | 0.0 | 2.0 | 0.51 | 0.52 | 0.51 | 94 | 1013.3 |
| 20260506133056 | 66 | 0 | 0.0 | 4.0 | 0.47 | 0.48 | 0.47 | 94 | 1013.1 |
| 20260506132556 | 66 | 137 | 0.0 | 4.0 | 0.40 | 0.41 | 0.40 | 94 | 1014.3 |
| 20260506132056 | 66 | 333 | 1.0 | 8.0 | 0.27 | 0.28 | 0.27 | 93 | 1014.5 |
| 20260506131608 | 66 | 0 | 1.0 | 8.0 | 0.15 | 0.16 | 0.15 | 93 | 1014.6 |
| 20260506131054 | 66 | 304 | 4.0 | 8.0 | 0.08 | 0.09 | 0.08 | 93 | 1013.8 |
| 20260506130556 | 66 | 0 | 2.0 | 4.0 | 0.05 | 0.06 | 0.05 | 92 | 1013.7 |
| 20260506130055 | 66 | 221 | 1.0 | 3.0 | 0.03 | 0.04 | 0.03 | 91 | 1013.1 |
| 20260506125556 | 67 | 206 | 1.0 | 5.0 | 0.02 | 0.03 | 0.02 | 90 | 1013.1 |
| 20260506125056 | 67 | 232 | 1.0 | 5.0 | 0.01 | 0.02 | 0.01 | 89 | 1013.1 |
| 20260506124556 | 68 | 229 | 2.0 | 5.0 | 0.00 | 0.01 | 0.00 | 88 | 1013.1 |
| 20260506124057 | 68 | 213 | 2.0 | 5.0 | 0.00 | 0.01 | 0.00 | 86 | 1013.0 |
| 20260506123556 | 68 | 200 | 1.0 | 4.0 | 0.00 | 0.01 | 0.00 | 85 | 1012.9 |
| 20260506123058 | 68 | 195 | 2.0 | 4.0 | 0.00 | 0.01 | 0.00 | 85 | 1012.9 |
| 20260506122556 | 68 | 199 | 1.0 | 5.0 | 0.00 | 0.01 | 0.00 | 85 | 1012.9 |
| 20260506122055 | 68 | 209 | 2.0 | 5.0 | 0.00 | 0.01 | 0.00 | 85 | 1012.7 |
| 20260506121605 | 68 | 185 | 0.0 | 5.0 | 0.00 | 0.01 | 0.00 | 85 | 1012.6 |
| 20260506121057 | 68 | 196 | 2.0 | 5.0 | 0.00 | 0.01 | 0.00 | 84 | 1012.2 |
| 20260506120557 | 68 | 204 | 2.0 | 4.0 | 0.00 | 0.01 | 0.00 | 84 | 1012.1 |
| 20260506115557 | 68 | 203 | 2.0 | 4.0 | 0.00 | 0.01 | 0.00 | 84 | 1012.1 |
| 20260506115057 | 68 | 193 | 1.0 | 5.0 | 0.00 | 0.01 | 0.00 | 84 | 1012.1 |
| 20260506114556 | 68 | 219 | 2.0 | 5.0 | 0.00 | 0.01 | 0.00 | 83 | 1012.0 |
| 20260506114056 | 68 | 188 | 2.0 | 5.0 | 0.00 | 0.01 | 0.00 | 84 | 1011.9 |
| 20260506113556 | 68 | 194 | 2.0 | 3.0 | 0.00 | 0.01 | 0.00 | 83 | 1011.7 |
| 20260506113054 | 68 | 189 | 1.0 | 3.0 | 0.00 | 0.01 | 0.00 | 83 | 1011.6 |
| 20260506112556 | 68 | 136 | 1.0 | 5.0 | 0.00 | 0.01 | 0.00 | 83 | 1011.6 |
| 20260506112056 | 68 | 198 | 2.0 | 5.0 | 0.00 | 0.01 | 0.00 | 83 | 1011.4 |
| 20260506111612 | 68 | 221 | 1.0 | 5.0 | 0.00 | 0.01 | 0.00 | 83 | 1011.1 |
| 20260506111057 | 68 | 178 | 1.0 | 5.0 | 0.00 | 0.01 | 0.00 | 83 | 1011.0 |
| 20260506110556 | 68 | 198 | 1.0 | 5.0 | 0.00 | 0.01 | 0.00 | 82 | 1011.2 |
| 20260506110055 | 68 | 189 | 2.0 | 4.0 | 0.00 | 0.01 | 0.00 | 82 | 1011.2 |
| 20260506105556 | 68 | 200 | 1.0 | 4.0 | 0.00 | 0.01 | 0.00 | 82 | 1011.0 |
| 20260506105056 | 68 | 185 | 1.0 | 5.0 | 0.00 | 0.01 | 0.00 | 82 | 1011.1 |
| 20260506104559 | 68 | 202 | 2.0 | 5.0 | 0.00 | 0.01 | 0.00 | 82 | 1011.1 |
| 20260506104055 | 68 | 0 | 1.0 | 3.0 | 0.00 | 0.01 | 0.00 | 82 | 1011.2 |
| 20260506103557 | 68 | 0 | 1.0 | 3.0 | 0.00 | 0.01 | 0.00 | 82 | 1011.0 |
| 20260506103101 | 68 | 0 | 1.0 | 6.0 | 0.00 | 0.01 | 0.00 | 82 | 1011.1 |
| 20260506102557 | 69 | 203 | 0.0 | 6.0 | 0.00 | 0.01 | 0.00 | 82 | 1010.9 |
| 20260506102057 | 69 | 186 | 1.0 | 5.0 | 0.00 | 0.01 | 0.00 | 81 | 1010.9 |